KWMC/WMC METAR and TAF weather

Enter ICAO airport designator
Station Type Date Time Source
KWMC METAR 2020/04/10 18:56 UTC NOAA

KWMC 101856Z AUTO VRB03KT 10SM CLR 15/M03 A3004 RMK AO2 SLP153 T01501028


Station Type Date Time Source
KWMC Decoded METAR 2020/04/10 18:56 UTC NOAA

WINNEMUCCA MUNICIPAL AIRPORT, NV, United States (KWMC) 40-54N 117-48W 1310M
Apr 10, 2020 - 02:56 PM EDT / 2020.04.10 1856 UTC
Wind: Variable at 3 MPH (3 KT):0
Visibility: 10 mile(s):0
Sky conditions: clear
Temperature: 59.0 F (15.0 C)
Dew Point: 27.0 F (-2.8 C)
Relative Humidity: 29%
Pressure (altimeter): 30.04 in. Hg (1017 hPa)
ob: KWMC 101856Z AUTO VRB03KT 10SM CLR 15/M03 A3004 RMK AO2 SLP153 T01501028
cycle: 19

Station Type Date Time Source
KWMC TAF 2020/04/10 18:22 UTC NOAA

TAF KWMC 101720Z 1018/1118 VRB04KT P6SM FEW120 SCT200
FM102100 27005KT P6SM FEW100 SCT200
FM110200 VRB04KT P6SM SCT100 BKN180

Example: see airport list